Time;durP1;ratioP1;P1;durP2;ratioP2;P2;SDS_P1;SDS_P2;PMS_P1;PMS_P2;Temp;Humidity;BMP_temperature;BMP_pressure;BME280_temperature;BME280_humidity;BME280_pressure;Samples;Min_cycle;Max_cycle;Signal;HPM_P1;HPM_P2
2022/11/25 06:03:25;;;;;;;;;9.00;5.25;;;;;9.56;100.00;101293.06;5136452;23;49954;-77
2022/11/25 06:05:51;;;;;;;;;4.75;3.00;;;;;7.94;100.00;101030.91;5047119;28;49894;-78
2022/11/25 06:08:16;;;;;;;;;6.75;4.50;;;;;9.45;100.00;101276.97;5039741;28;49755;-75
2022/11/25 06:10:42;;;;;;;;;7.00;5.25;;;;;8.68;100.00;101189.63;5045548;28;49578;-74
2022/11/25 06:13:08;;;;;;;;;4.00;3.75;;;;;9.39;100.00;101271.53;5046482;28;49667;-73
2022/11/25 06:15:39;;;;;;;;;4.25;3.50;;;;;9.63;100.00;101332.63;5054441;28;49431;-75
2022/11/25 06:18:04;;;;;;;;;8.50;3.25;;;;;8.78;100.00;101188.22;5038659;28;50008;-70
2022/11/25 06:20:30;;;;;;;;;3.75;3.00;;;;;9.40;100.00;101295.16;5041142;28;49697;-72
2022/11/25 06:22:57;;;;;;;;;9.25;5.25;;;;;8.31;100.00;101138.59;5024096;28;49882;-74
2022/11/25 06:25:24;;;;;;;;;6.00;4.00;;;;;9.60;100.00;101348.25;5035264;28;50121;-75
2022/11/25 06:27:49;;;;;;;;;6.00;3.50;;;;;9.59;100.00;101341.22;5042457;28;49778;-74
2022/11/25 06:30:15;;;;;;;;;4.75;4.00;;;;;9.57;100.00;101345.53;5039560;28;50397;-76
2022/11/25 06:32:40;;;;;;;;;3.00;2.00;;;;;9.56;100.00;101348.13;5035140;28;49761;-76
2022/11/25 06:35:06;;;;;;;;;9.00;6.50;;;;;9.33;100.00;101314.13;5034196;28;49843;-77
2022/11/25 06:37:32;;;;;;;;;2.25;2.25;;;;;9.52;100.00;101352.34;5034106;28;49723;-75
2022/11/25 06:39:57;;;;;;;;;7.25;4.75;;;;;8.40;100.00;101185.16;5030996;28;49712;-74
2022/11/25 06:42:22;;;;;;;;;7.50;4.50;;;;;9.07;100.00;101294.91;5031319;28;49801;-75
2022/11/25 06:44:48;;;;;;;;;7.50;5.00;;;;;8.03;100.00;101128.88;5031457;28;49921;-75
2022/11/25 06:47:13;;;;;;;;;4.00;3.25;;;;;9.45;100.00;101361.72;5031102;28;49759;-75
2022/11/25 06:49:38;;;;;;;;;5.50;5.00;;;;;8.82;100.00;101253.84;5030305;28;67241;-74
2022/11/25 06:52:04;;;;;;;;;5.25;3.00;;;;;9.45;100.00;101364.31;5030853;28;51019;-77
2022/11/25 06:54:29;;;;;;;;;3.00;3.00;;;;;8.58;100.00;101227.66;5029699;28;49807;-73
2022/11/25 06:56:54;;;;;;;;;7.00;6.50;;;;;8.48;100.00;101208.97;5026421;28;49816;-69
2022/11/25 06:59:20;;;;;;;;;5.50;5.50;;;;;9.05;100.00;101301.78;5030581;28;50632;-73
2022/11/25 07:01:46;;;;;;;;;6.25;4.00;;;;;9.17;100.00;101325.81;5030461;28;49830;-75
2022/11/25 07:04:11;;;;;;;;;8.00;3.50;;;;;8.87;100.00;101274.94;5031209;28;49713;-70
2022/11/25 07:06:37;;;;;;;;;6.50;3.75;;;;;9.15;100.00;101329.19;5031094;28;49817;-70
2022/11/25 07:09:03;;;;;;;;;7.00;3.25;;;;;9.37;100.00;101370.16;5037124;28;50541;-69
2022/11/25 07:11:32;;;;;;;;;4.75;3.75;;;;;8.88;100.00;101279.38;5049967;28;49602;-75
2022/11/25 07:14:03;;;;;;;;;4.00;3.25;;;;;9.37;100.00;101380.66;5049920;28;49811;-74
2022/11/25 07:16:30;;;;;;;;;9.75;7.50;;;;;9.36;100.00;101379.75;5050176;28;49945;-74
2022/11/25 07:18:58;;;;;;;;;6.50;4.75;;;;;9.33;100.00;101392.72;5049733;28;50264;-71
2022/11/25 07:21:24;;;;;;;;;5.00;4.25;;;;;9.00;100.00;101344.38;5049989;28;49748;-70
2022/11/25 07:23:51;;;;;;;;;5.50;3.50;;;;;9.35;100.00;101401.53;5049904;28;49862;-70
2022/11/25 07:26:20;;;;;;;;;6.75;4.00;;;;;9.33;100.00;101399.69;5050057;28;49715;-71
2022/11/25 07:28:46;;;;;;;;;4.00;3.00;;;;;9.35;100.00;101405.88;5031763;28;50482;-74
2022/11/25 07:31:39;;;;;;;;;5.25;5.25;;;;;8.56;100.00;101267.72;5049330;28;49847;-73
2022/11/25 07:34:08;;;;;;;;;7.25;6.50;;;;;8.65;100.00;101291.59;5049521;28;49773;-75
2022/11/25 07:36:34;;;;;;;;;7.25;5.75;;;;;9.39;100.00;101420.88;5036825;28;50001;-70
2022/11/25 07:39:04;;;;;;;;;7.75;7.00;;;;;9.39;100.00;101418.28;5052662;28;50558;-69
2022/11/25 07:41:29;;;;;;;;;4.00;4.00;;;;;9.40;100.00;101427.91;5053842;28;49651;-70
2022/11/25 07:43:58;;;;;;;;;8.00;4.75;;;;;9.41;100.00;101432.31;5049842;28;49730;-76
2022/11/25 07:46:35;;;;;;;;;6.00;5.25;;;;;9.41;100.00;101438.44;5049494;28;49937;-76
2022/11/25 07:49:03;;;;;;;;;8.50;7.00;;;;;9.40;100.00;101441.91;5049434;28;50247;-79
2022/11/25 07:51:34;;;;;;;;;4.00;4.00;;;;;9.41;100.00;101440.19;5049524;28;49878;-79
2022/11/25 07:54:01;;;;;;;;;5.25;2.75;;;;;9.42;100.00;101455.06;5049676;28;49889;-80
2022/11/25 07:56:27;;;;;;;;;8.00;5.75;;;;;9.44;100.00;101461.25;5038366;28;49773;-77
2022/11/25 07:58:54;;;;;;;;;5.50;4.25;;;;;9.44;100.00;101475.25;5030127;28;49838;-79
2022/11/25 08:01:19;;;;;;;;;3.50;3.50;;;;;9.41;100.00;101469.00;5029702;28;49775;-78
2022/11/25 08:03:47;;;;;;;;;4.00;4.00;;;;;9.48;100.00;101481.50;5032662;28;49726;-79
2022/11/25 08:06:16;;;;;;;;;4.00;4.00;;;;;9.39;100.00;101481.16;5032947;28;49860;-82
2022/11/25 08:08:42;;;;;;;;;8.00;4.00;;;;;9.51;100.00;101499.94;5037316;28;50276;-73
2022/11/25 08:11:14;;;;;;;;;3.75;3.00;;;;;9.49;100.00;101491.16;5034138;28;49686;-76
2022/11/25 08:13:39;;;;;;;;;7.25;5.00;;;;;9.55;100.00;101504.47;5033608;28;49840;-74
2022/11/25 08:16:06;;;;;;;;;11.00;5.75;;;;;9.55;100.00;101503.56;5033295;28;49777;-82
2022/11/25 08:18:32;;;;;;;;;3.75;3.75;;;;;9.45;100.00;101489.22;5040203;28;49645;-76
2022/11/25 08:20:59;;;;;;;;;7.00;3.50;;;;;9.16;100.00;101443.59;5015623;28;50272;-81
2022/11/25 08:23:25;;;;;;;;;7.00;5.75;;;;;9.37;100.00;101481.13;5036393;28;49712;-68
2022/11/25 08:25:50;;;;;;;;;8.00;6.50;;;;;9.47;100.00;101500.69;5033352;28;49877;-67
2022/11/25 08:28:16;;;;;;;;;7.75;6.75;;;;;9.58;100.00;101527.28;5027933;28;52364;-70
2022/11/25 08:30:41;;;;;;;;;4.75;4.00;;;;;8.96;100.00;101413.16;5048431;28;49723;-71
2022/11/25 08:33:06;;;;;;;;;3.25;3.25;;;;;9.63;100.00;101552.81;5051958;28;54569;-72
2022/11/25 08:35:36;;;;;;;;;4.75;4.00;;;;;9.66;100.00;101533.72;5052720;28;49942;-69
2022/11/25 08:38:07;;;;;;;;;5.00;3.50;;;;;9.69;100.00;101545.19;5052266;28;50309;-67
2022/11/25 08:40:34;;;;;;;;;4.50;4.00;;;;;9.60;100.00;101528.22;5052321;28;49923;-67
2022/11/25 08:43:00;;;;;;;;;3.50;3.00;;;;;8.86;100.00;101414.53;5052469;28;49518;-73
2022/11/25 08:45:25;;;;;;;;;5.00;5.00;;;;;9.07;100.00;101461.59;5051905;28;49841;-73
2022/11/25 08:47:50;;;;;;;;;6.25;4.75;;;;;9.72;100.00;101545.28;5052108;28;49876;-68
2022/11/25 08:50:16;;;;;;;;;8.25;6.25;;;;;8.89;100.00;101396.34;5034241;28;49842;-68
2022/11/25 08:52:42;;;;;;;;;11.50;8.00;;;;;9.60;100.00;101521.25;5052244;28;49732;-68
2022/11/25 08:55:07;;;;;;;;;7.00;6.75;;;;;9.35;100.00;101515.94;5052270;28;49890;-70
2022/11/25 08:57:33;;;;;;;;;8.50;7.00;;;;;9.90;100.00;101573.94;5051668;28;50547;-68
2022/11/25 08:59:59;;;;;;;;;10.00;7.50;;;;;9.64;100.00;101531.00;5051352;28;49849;-67
2022/11/25 09:02:24;;;;;;;;;4.75;4.75;;;;;9.82;100.00;101553.50;5051860;28;49721;-67
2022/11/25 09:04:52;;;;;;;;;7.75;3.00;;;;;9.47;100.00;101492.81;5052032;28;49987;-70
2022/11/25 09:07:18;;;;;;;;;5.00;5.00;;;;;9.25;100.00;101441.34;5032489;28;50583;-73
2022/11/25 09:09:43;;;;;;;;;7.00;5.00;;;;;9.47;100.00;101505.94;5032531;28;49783;-69
2022/11/25 09:12:09;;;;;;;;;6.00;6.00;;;;;9.45;100.00;101482.25;5033028;28;49924;-70
2022/11/25 09:14:35;;;;;;;;;6.00;5.50;;;;;8.89;100.00;101391.13;5032551;28;49808;-73
2022/11/25 09:17:00;;;;;;;;;4.00;2.25;;;;;9.73;100.00;101507.75;5030839;28;49765;-73
2022/11/25 09:19:27;;;;;;;;;5.50;4.25;;;;;10.22;100.00;101592.56;5032189;28;49754;-69
2022/11/25 09:21:53;;;;;;;;;8.00;5.00;;;;;10.22;100.00;101587.31;5032399;28;49638;-68
2022/11/25 09:24:19;;;;;;;;;11.75;8.75;;;;;10.23;100.00;101587.41;5032404;28;49946;-70
2022/11/25 09:26:44;;;;;;;;;4.25;3.25;;;;;10.37;100.00;101611.50;5032178;28;49774;-68
2022/11/25 09:29:13;;;;;;;;;12.00;9.25;;;;;10.37;100.00;101607.97;5032316;28;49778;-68
2022/11/25 09:31:39;;;;;;;;;7.00;5.00;;;;;10.19;100.00;101592.44;5032251;28;49861;-68
2022/11/25 09:34:04;;;;;;;;;6.75;6.25;;;;;9.49;100.00;101466.66;5032715;28;49881;-74
2022/11/25 09:36:30;;;;;;;;;3.50;3.00;;;;;10.26;100.00;101595.38;5032080;28;50290;-75
2022/11/25 09:38:55;;;;;;;;;2.25;2.25;;;;;10.49;100.00;101642.53;5031802;28;50108;-71
2022/11/25 09:47:56;;;;;;;;;6.00;4.75;;;;;10.30;100.00;101620.00;5051293;28;50291;-70
2022/11/25 09:50:27;;;;;;;;;3.75;3.75;;;;;10.58;100.00;101661.22;5051307;28;49862;-68
2022/11/25 09:53:22;;;;;;;;;8.00;8.00;;;;;10.40;100.00;101636.94;5050990;28;50042;-72
2022/11/25 09:55:52;;;;;;;;;7.50;7.00;;;;;10.60;100.00;101662.16;5051215;28;49693;-67
2022/11/25 09:58:20;;;;;;;;;5.00;5.00;;;;;10.69;100.00;101683.50;5050808;28;49791;-70
2022/11/25 10:00:48;;;;;;;;;8.50;7.50;;;;;10.45;100.00;101636.28;5050824;28;49807;-67
2022/11/25 10:03:36;;;;;;;;;4.00;4.00;;;;;10.78;100.00;101685.56;5051175;28;49798;-70
2022/11/25 10:06:05;;;;;;;;;8.25;7.00;;;;;10.86;100.00;101679.72;5051245;28;49678;-73
2022/11/25 10:08:47;;;;;;;;;4.50;3.75;;;;;10.38;100.00;101602.78;5050930;28;49790;-73
2022/11/25 10:11:34;;;;;;;;;4.50;4.50;;;;;10.92;100.00;101691.31;5051034;28;49662;-67
2022/11/25 10:14:07;;;;;;;;;4.75;3.75;;;;;10.93;100.00;101711.47;5051039;28;49842;-73
2022/11/25 10:16:35;;;;;;;;;10.00;7.75;;;;;10.92;100.00;101694.81;5050409;28;49820;-74
2022/11/25 10:19:32;;;;;;;;;8.75;7.25;;;;;10.95;100.00;101715.03;5050777;28;52206;-67
2022/11/25 10:22:16;;;;;;;;;4.25;4.00;;;;;10.93;100.00;101699.22;5043461;28;49936;-69
2022/11/25 10:24:41;;;;;;;;;4.25;4.25;;;;;10.73;100.00;101674.91;5031376;28;49982;-71
2022/11/25 10:27:17;;;;;;;;;9.00;8.00;;;;;10.80;100.00;101679.50;5031433;28;50039;-73
2022/11/25 10:29:53;;;;;;;;;4.50;3.00;;;;;10.93;100.00;101701.84;5030547;28;49644;-67
2022/11/25 10:32:24;;;;;;;;;2.75;2.75;;;;;10.97;100.00;101701.09;5031157;28;49717;-75
2022/11/25 10:35:04;;;;;;;;;4.00;4.00;;;;;11.04;100.00;101715.34;5031279;28;49857;-73
2022/11/25 10:37:39;;;;;;;;;5.75;5.75;;;;;10.55;100.00;101643.66;5031389;28;49860;-67
2022/11/25 10:40:05;;;;;;;;;3.75;3.00;;;;;10.72;100.00;101657.38;5044364;28;50646;-67
2022/11/25 10:42:31;;;;;;;;;8.25;4.50;;;;;11.22;100.00;101725.59;5050357;28;49923;-67
2022/11/25 10:44:57;;;;;;;;;2.50;2.50;;;;;11.18;100.00;101714.06;5049951;28;49898;-72
2022/11/25 10:47:49;;;;;;;;;4.25;3.75;;;;;11.34;100.00;101731.25;5050691;28;49851;-71
2022/11/25 10:50:32;;;;;;;;;7.50;4.00;;;;;11.39;100.00;101727.06;5050300;28;50945;-72
2022/11/25 10:53:15;;;;;;;;;3.50;3.00;;;;;11.45;100.00;101737.75;5050296;28;49835;-73
2022/11/25 10:55:59;;;;;;;;;3.75;3.00;;;;;11.51;100.00;101734.44;5050456;28;49860;-67
2022/11/25 10:58:29;;;;;;;;;8.25;4.00;;;;;11.55;100.00;101737.22;5050466;28;49971;-72
2022/11/25 11:01:13;;;;;;;;;10.00;6.00;;;;;11.51;100.00;101721.31;5049972;28;50546;-69
2022/11/25 11:03:39;;;;;;;;;8.00;4.50;;;;;11.36;100.00;101705.91;5030328;28;49619;-68
2022/11/25 11:06:04;;;;;;;;;4.50;2.25;;;;;11.45;100.00;101714.09;5030129;28;49866;-68
2022/11/25 11:08:40;;;;;;;;;4.50;3.00;;;;;11.47;100.00;101733.44;5030217;28;50044;-67
2022/11/25 11:11:11;;;;;;;;;5.25;4.50;;;;;11.73;100.00;101752.69;5030006;28;49871;-74
2022/11/25 11:13:37;;;;;;;;;4.25;3.00;;;;;11.19;100.00;101652.78;5030015;28;49722;-68
2022/11/25 11:16:19;;;;;;;;;5.25;3.00;;;;;11.80;100.00;101751.19;5029723;28;49872;-75
2022/11/25 11:18:44;;;;;;;;;6.00;4.75;;;;;11.84;100.00;101758.31;5030177;28;49853;-68
2022/11/25 11:21:35;;;;;;;;;3.50;3.00;;;;;11.86;100.00;101760.16;5029778;28;50448;-70
2022/11/25 11:24:02;;;;;;;;;5.75;3.00;;;;;11.53;100.00;101696.81;5029910;28;49772;-76
2022/11/25 11:26:31;;;;;;;;;2.25;2.00;;;;;10.83;100.00;101597.31;5029733;28;49730;-68
2022/11/25 11:29:18;;;;;;;;;6.00;4.25;;;;;11.96;100.00;101770.13;5030271;28;49869;-67
2022/11/25 11:31:48;;;;;;;;;7.50;5.00;;;;;11.99;100.00;101764.06;5029288;28;49857;-69
2022/11/25 11:34:48;;;;;;;;;4.25;2.25;;;;;12.06;100.00;101787.09;5030022;28;50444;-75
2022/11/25 11:37:19;;;;;;;;;5.00;3.75;;;;;12.12;100.00;101779.38;5030000;28;50091;-73
2022/11/25 11:40:15;;;;;;;;;5.75;4.00;;;;;12.16;100.00;101778.66;5029061;28;49989;-71
2022/11/25 11:43:19;;;;;;;;;2.75;2.75;;;;;12.20;100.00;101770.00;5029637;28;49642;-72
2022/11/25 11:46:08;;;;;;;;;1.25;1.25;;;;;11.99;100.00;101727.22;5029372;28;49876;-73
2022/11/25 11:48:39;;;;;;;;;3.75;3.75;;;;;12.26;100.00;101771.94;5029768;28;49762;-76
2022/11/25 11:51:27;;;;;;;;;4.50;4.25;;;;;12.25;100.00;101771.00;5030081;28;49859;-76
2022/11/25 11:54:37;;;;;;;;;4.25;3.50;;;;;12.34;100.00;101780.91;5029469;28;49701;-76
2022/11/25 11:57:20;;;;;;;;;7.50;3.25;;;;;12.26;100.00;101753.50;4967448;28;50244;-74
2022/11/25 11:59:53;;;;;;;;;9.50;8.00;;;;;12.42;100.00;101773.25;4967004;28;49815;-74
2022/11/25 12:02:51;;;;;;;;;5.25;3.25;;;;;12.45;100.00;101776.88;5006633;28;49933;-75
2022/11/25 12:05:20;;;;;;;;;2.50;1.75;;;;;12.04;100.00;101705.44;5020390;28;52219;-67
2022/11/25 12:08:05;;;;;;;;;2.00;2.00;;;;;12.47;100.00;101783.09;5049443;28;49773;-73
2022/11/25 12:10:47;;;;;;;;;4.25;3.25;;;;;12.22;100.00;101739.31;5049472;28;50020;-70
2022/11/25 12:13:45;;;;;;;;;4.00;3.00;;;;;12.50;100.00;101798.97;5049493;28;50018;-71
2022/11/25 12:16:18;;;;;;;;;3.50;3.00;;;;;12.52;100.00;101802.53;5042866;28;49804;-70
2022/11/25 12:18:49;;;;;;;;;4.75;4.00;;;;;12.54;100.00;101799.94;5048865;28;50124;-69
2022/11/25 12:21:40;;;;;;;;;4.75;3.00;;;;;12.42;100.00;101784.69;5048901;28;49709;-74
2022/11/25 12:24:28;;;;;;;;;6.00;3.00;;;;;12.53;100.00;101804.31;5049435;28;49847;-71
2022/11/25 12:27:05;;;;;;;;;6.00;5.25;;;;;12.55;100.00;101810.56;4992972;28;51573;-70
2022/11/25 12:29:51;;;;;;;;;12.50;5.75;;;;;11.79;100.00;101680.97;5048944;28;49853;-69
2022/11/25 12:32:20;;;;;;;;;7.75;6.25;;;;;12.64;100.00;101811.63;5048984;28;49842;-70
2022/11/25 12:35:14;;;;;;;;;5.00;2.75;;;;;11.93;100.00;101709.50;5048982;28;50082;-69
2022/11/25 12:38:02;;;;;;;;;3.00;3.00;;;;;12.75;100.00;101819.03;5048813;28;49770;-71
2022/11/25 12:41:00;;;;;;;;;5.50;4.25;;;;;12.79;100.00;101812.09;5048653;28;49914;-67
2022/11/25 12:43:34;;;;;;;;;4.25;2.50;;;;;12.13;100.00;101694.31;5049084;28;49817;-66
2022/11/25 12:46:14;;;;;;;;;3.25;1.00;;;;;12.88;100.00;101813.25;5050421;28;49712;-72
2022/11/25 12:48:41;;;;;;;;;7.50;4.75;;;;;12.72;100.00;101795.19;5033131;28;50745;-68
2022/11/25 12:51:31;;;;;;;;;3.00;2.25;;;;;12.94;100.00;101820.44;5050562;28;49771;-68
2022/11/25 12:54:24;;;;;;;;;4.50;3.00;;;;;12.92;100.00;101818.59;5040673;28;49689;-73
2022/11/25 12:57:27;;;;;;;;;11.00;5.00;;;;;12.90;100.00;101823.81;5029492;28;50120;-68
2022/11/25 13:00:19;;;;;;;;;3.00;3.00;;;;;12.67;100.00;101799.47;5054706;28;49910;-68
2022/11/25 13:03:23;;;;;;;;;5.50;3.25;;;;;12.90;100.00;101831.72;5051731;28;49682;-78
2022/11/25 13:05:48;;;;;;;;;3.25;2.00;;;;;12.91;100.00;101846.69;5051801;28;49777;-69
2022/11/25 13:08:32;;;;;;;;;4.50;4.50;;;;;12.66;100.00;101815.22;5052520;28;50046;-73
2022/11/25 13:11:21;;;;;;;;;5.75;4.75;;;;;12.88;100.00;101849.25;5051906;28;50046;-71
2022/11/25 13:14:12;;;;;;;;;7.00;3.75;;;;;12.67;100.00;101812.63;5051720;28;49697;-69
2022/11/25 13:16:39;;;;;;;;;4.50;3.00;;;;;12.73;100.00;101833.88;5051313;28;49891;-69
2022/11/25 13:19:11;;;;;;;;;6.25;5.00;;;;;12.44;100.00;101800.53;5051780;28;49737;-70
2022/11/25 13:21:55;;;;;;;;;3.00;3.00;;;;;12.60;100.00;101792.22;5038728;28;49886;-70
2022/11/25 13:24:38;;;;;;;;;5.75;4.25;;;;;12.92;100.00;101839.66;5047266;28;49740;-71
2022/11/25 13:27:04;;;;;;;;;6.50;5.25;;;;;12.89;100.00;101829.94;5051522;28;49555;-70
2022/11/25 13:29:29;;;;;;;;;6.00;5.00;;;;;12.95;100.00;101845.94;5052051;28;49736;-72
2022/11/25 13:31:55;;;;;;;;;14.00;11.00;;;;;12.76;100.00;101801.47;5050718;28;49882;-68
2022/11/25 13:34:20;;;;;;;;;2.25;1.75;;;;;13.04;100.00;101855.84;5051592;28;49811;-70
2022/11/25 13:36:48;;;;;;;;;3.50;2.75;;;;;13.00;100.00;101875.94;5051776;28;49938;-67
2022/11/25 13:39:17;;;;;;;;;5.75;1.25;;;;;13.04;100.00;101845.31;5051808;28;49939;-69
2022/11/25 13:41:48;;;;;;;;;5.00;2.00;;;;;13.10;100.00;101867.44;5051277;28;49710;-68
2022/11/25 13:44:27;;;;;;;;;5.75;4.00;;;;;13.14;100.00;101860.53;5052918;28;49839;-69
2022/11/25 13:46:55;;;;;;;;;6.25;5.00;;;;;13.08;100.00;101853.34;5050992;28;49799;-72
2022/11/25 13:49:39;;;;;;;;;3.00;3.00;;;;;13.13;100.00;101867.56;5051301;28;49730;-68
2022/11/25 13:52:22;;;;;;;;;12.75;3.75;;;;;12.95;100.00;101830.13;5056989;28;49884;-68
2022/11/25 13:54:52;;;;;;;;;6.00;4.00;;;;;13.04;100.00;101859.38;5053063;28;49589;-68
2022/11/25 13:57:26;;;;;;;;;5.50;4.00;;;;;13.17;100.00;101868.53;5051284;28;49756;-70
2022/11/25 13:59:58;;;;;;;;;3.00;3.00;;;;;13.11;100.00;101857.78;5051352;28;49947;-71
2022/11/25 14:02:27;;;;;;;;;3.00;3.00;;;;;13.21;100.00;101880.06;5035688;28;50745;-75
2022/11/25 14:05:12;;;;;;;;;4.00;4.00;;;;;13.14;100.00;101871.97;5037034;28;49638;-71
2022/11/25 14:08:09;;;;;;;;;3.75;2.75;;;;;13.21;100.00;101883.59;5050773;28;50247;-72
2022/11/25 14:10:44;;;;;;;;;6.50;2.50;;;;;13.28;100.00;101884.66;5050700;28;49625;-70
2022/11/25 14:13:37;;;;;;;;;4.50;4.50;;;;;13.36;100.00;101891.06;5037207;28;51570;-71
2022/11/25 14:16:18;;;;;;;;;5.75;3.50;;;;;13.46;100.00;101898.34;5030665;28;49683;-70
2022/11/25 14:19:14;;;;;;;;;3.75;2.75;;;;;13.25;100.00;101845.94;5031268;28;49764;-68
2022/11/25 14:21:49;;;;;;;;;5.50;3.00;;;;;13.52;100.00;101885.34;5037559;28;50044;-71
2022/11/25 14:24:28;;;;;;;;;5.25;3.75;;;;;13.65;100.00;101908.56;5031041;28;49838;-70
2022/11/25 14:26:55;;;;;;;;;2.00;2.00;;;;;13.64;100.00;101924.34;5031040;28;49807;-69
2022/11/25 14:29:39;;;;;;;;;3.00;3.00;;;;;13.53;99.73;101905.59;5031019;28;49787;-69
2022/11/25 14:32:32;;;;;;;;;4.25;1.50;;;;;13.73;99.89;101928.13;5031526;28;49981;-69
2022/11/25 14:35:22;;;;;;;;;3.00;3.00;;;;;13.79;99.52;101932.66;5045205;28;50621;-75
2022/11/25 14:37:58;;;;;;;;;5.25;5.25;;;;;13.77;100.00;101930.84;5048050;28;49842;-68
2022/11/25 14:40:33;;;;;;;;;4.25;3.25;;;;;13.69;100.00;101926.25;5035370;28;49827;-73
2022/11/25 14:43:06;;;;;;;;;3.25;3.25;;;;;13.56;100.00;101900.38;5034960;28;50014;-71
2022/11/25 14:45:34;;;;;;;;;7.25;5.75;;;;;13.65;100.00;101927.03;5033869;28;49880;-72
2022/11/25 14:48:17;;;;;;;;;3.00;3.00;;;;;13.67;99.61;101943.78;5037395;28;49770;-68
2022/11/25 14:50:58;;;;;;;;;7.50;3.25;;;;;13.65;100.00;101942.84;5036825;28;49641;-71
2022/11/25 14:53:25;;;;;;;;;9.50;4.50;;;;;13.50;100.00;101938.91;5031279;28;49981;-68
2022/11/25 14:55:51;;;;;;;;;3.00;2.25;;;;;13.49;97.94;101951.19;5036237;28;50474;-68
2022/11/25 14:58:18;;;;;;;;;4.50;3.00;;;;;13.43;98.75;101964.22;5036442;28;49783;-68
2022/11/25 15:01:07;;;;;;;;;4.00;3.00;;;;;13.24;98.60;101946.09;5029105;28;49811;-67
2022/11/25 15:03:32;;;;;;;;;9.75;6.25;;;;;13.19;97.53;101948.59;5030574;28;49911;-68
2022/11/25 15:06:05;;;;;;;;;3.75;3.75;;;;;13.30;97.58;101977.91;5038854;28;50542;-70
2022/11/25 15:08:42;;;;;;;;;3.00;2.50;;;;;13.24;98.23;101983.00;5034607;28;50054;-71
2022/11/25 15:11:20;;;;;;;;;7.75;3.50;;;;;13.23;97.98;101992.66;5037772;28;49843;-71
2022/11/25 15:13:49;;;;;;;;;4.00;4.00;;;;;13.12;97.56;101986.13;5034216;28;49648;-68
2022/11/25 15:16:18;;;;;;;;;4.50;3.25;;;;;13.11;97.81;101993.13;5030156;28;49793;-69
2022/11/25 15:18:49;;;;;;;;;6.50;4.25;;;;;13.05;98.61;102006.16;5032432;28;49717;-70
2022/11/25 15:21:19;;;;;;;;;8.25;4.25;;;;;13.07;99.32;102017.63;5046534;28;49880;-75
2022/11/25 15:23:44;;;;;;;;;5.00;3.75;;;;;13.05;99.54;102024.59;5030162;28;49705;-72
2022/11/25 15:26:21;;;;;;;;;8.25;2.00;;;;;12.88;100.00;102004.75;5029832;28;50239;-72
2022/11/25 15:28:56;;;;;;;;;2.25;2.00;;;;;12.92;100.00;102005.72;5038266;28;49806;-71
2022/11/25 15:31:27;;;;;;;;;4.50;3.25;;;;;13.03;100.00;102033.31;5030397;28;49997;-71
2022/11/25 15:33:57;;;;;;;;;6.75;2.75;;;;;12.88;100.00;102013.53;5031144;28;50044;-71
2022/11/25 15:36:23;;;;;;;;;5.00;5.00;;;;;12.92;100.00;102037.34;5029422;28;49649;-73
2022/11/25 15:38:49;;;;;;;;;4.50;4.00;;;;;12.88;100.00;102052.19;5034012;28;49619;-71
2022/11/25 15:41:23;;;;;;;;;6.00;4.75;;;;;12.81;100.00;102053.72;5030756;28;49766;-70
2022/11/25 15:43:54;;;;;;;;;5.75;5.00;;;;;12.71;100.00;102041.09;5030491;28;49881;-72
2022/11/25 15:46:20;;;;;;;;;6.00;3.00;;;;;12.70;100.00;102057.75;5042234;28;50603;-70
2022/11/25 15:48:48;;;;;;;;;4.75;3.00;;;;;12.68;100.00;102071.72;5049184;28;49660;-70
2022/11/25 15:51:42;;;;;;;;;4.25;2.25;;;;;12.63;100.00;102083.81;5048486;28;49844;-71
2022/11/25 15:54:26;;;;;;;;;3.00;3.00;;;;;12.60;100.00;102082.00;5049271;28;49859;-70
2022/11/25 15:57:02;;;;;;;;;10.75;7.50;;;;;12.50;100.00;102080.78;5030356;28;49733;-70
2022/11/25 15:59:53;;;;;;;;;5.75;2.00;;;;;12.50;100.00;102095.69;5044327;28;49730;-71
2022/11/25 16:02:40;;;;;;;;;3.00;3.00;;;;;12.46;100.00;102097.34;5015679;28;49925;-72
2022/11/25 16:05:12;;;;;;;;;5.50;5.50;;;;;12.42;100.00;102099.81;5029955;28;49765;-71
2022/11/25 16:07:52;;;;;;;;;4.75;4.75;;;;;12.38;100.00;102101.44;5047105;28;49831;-72
2022/11/25 16:10:21;;;;;;;;;7.25;6.25;;;;;12.37;100.00;102098.78;5035366;28;49869;-73
2022/11/25 16:13:27;;;;;;;;;5.25;5.25;;;;;12.33;100.00;102111.81;5030042;28;49835;-72
2022/11/25 16:16:14;;;;;;;;;4.75;3.00;;;;;12.31;100.00;102116.13;5029902;28;49959;-72
2022/11/25 16:18:54;;;;;;;;;8.25;4.00;;;;;12.32;100.00;102130.19;5044497;28;50490;-73
2022/11/25 16:21:23;;;;;;;;;8.50;5.00;;;;;12.14;100.00;102098.84;5049209;28;49740;-71
2022/11/25 16:23:58;;;;;;;;;2.00;1.75;;;;;12.15;100.00;102105.00;5049219;28;49888;-71
2022/11/25 16:26:28;;;;;;;;;1.00;1.00;;;;;12.31;100.00;102141.56;5049233;28;49745;-72
2022/11/25 16:28:56;;;;;;;;;7.00;4.50;;;;;12.30;100.00;102145.03;5052579;28;49787;-73
2022/11/25 16:31:22;;;;;;;;;5.00;4.00;;;;;12.15;100.00;102128.69;5052245;28;50171;-73
2022/11/25 16:33:49;;;;;;;;;6.00;5.50;;;;;12.08;100.00;102124.97;5052509;28;49756;-72
2022/11/25 16:36:15;;;;;;;;;4.00;4.00;;;;;12.19;100.00;102154.28;5053205;28;49879;-72
2022/11/25 16:38:40;;;;;;;;;7.25;4.00;;;;;12.05;100.00;102130.09;5052232;28;50216;-72
2022/11/25 16:41:17;;;;;;;;;5.50;5.50;;;;;12.16;100.00;102155.09;5052387;28;49697;-69
2022/11/25 16:43:43;;;;;;;;;6.50;4.75;;;;;12.07;100.00;102149.50;5052217;28;49604;-68
2022/11/25 16:46:14;;;;;;;;;6.75;5.50;;;;;12.06;100.00;102152.94;5051188;28;49751;-68
2022/11/25 16:48:40;;;;;;;;;5.25;5.25;;;;;12.07;100.00;102149.50;5052077;28;49829;-68
2022/11/25 16:51:13;;;;;;;;;7.50;6.00;;;;;12.06;100.00;102150.28;5052278;28;49975;-69
2022/11/25 16:53:39;;;;;;;;;7.50;5.50;;;;;11.89;100.00;102133.91;5053860;28;49892;-73
2022/11/25 16:56:05;;;;;;;;;6.75;5.25;;;;;11.67;100.00;102099.69;5052233;28;49836;-71
2022/11/25 16:58:31;;;;;;;;;6.75;4.25;;;;;11.62;100.00;102090.75;5050982;28;52523;-70
2022/11/25 17:00:56;;;;;;;;;12.75;12.50;;;;;12.00;100.00;102174.69;5052196;28;49900;-70
2022/11/25 17:03:25;;;;;;;;;13.50;9.00;;;;;11.90;100.00;102167.28;5051706;28;49898;-70
2022/11/25 17:05:54;;;;;;;;;22.00;14.75;;;;;11.73;100.00;102152.53;5052251;28;50075;-72
2022/11/25 17:08:20;;;;;;;;;11.75;11.25;;;;;11.82;100.00;102189.75;5040486;28;49303;-70
2022/11/25 17:10:46;;;;;;;;;11.50;9.00;;;;;11.79;100.00;102173.84;5032525;28;49911;-79
2022/11/25 17:13:22;;;;;;;;;8.00;8.00;;;;;11.71;100.00;102155.13;5014689;28;49701;-69
2022/11/25 17:15:48;;;;;;;;;13.25;9.50;;;;;11.60;100.00;102135.41;5032628;28;50031;-69
2022/11/25 17:18:17;;;;;;;;;6.50;6.00;;;;;11.94;100.00;102205.13;5032211;28;49770;-69
2022/11/25 17:20:43;;;;;;;;;10.00;9.25;;;;;11.95;100.00;102206.91;5050159;28;50338;-71
2022/11/25 17:23:14;;;;;;;;;6.50;6.00;;;;;11.95;100.00;102209.53;5040881;28;50700;-73
2022/11/25 17:25:44;;;;;;;;;9.00;8.25;;;;;11.92;100.00;102206.81;5037237;28;49903;-74
2022/11/25 17:28:20;;;;;;;;;9.50;7.50;;;;;11.95;100.00;102209.53;5033869;28;51295;-68
2022/11/25 17:30:46;;;;;;;;;5.75;5.75;;;;;11.78;100.00;102189.56;5034217;28;49717;-71
2022/11/25 17:33:15;;;;;;;;;5.00;5.00;;;;;11.77;100.00;102204.44;5036545;28;49809;-68
2022/11/25 17:35:42;;;;;;;;;9.25;8.25;;;;;11.89;100.00;102235.63;5031740;28;50145;-74
2022/11/25 17:38:16;;;;;;;;;8.00;7.75;;;;;11.67;100.00;102207.53;5031183;28;50707;-69
2022/11/25 17:40:42;;;;;;;;;9.00;5.00;;;;;11.68;100.00;102209.38;5045020;28;49744;-68
2022/11/25 17:43:16;;;;;;;;;10.25;8.75;;;;;11.65;100.00;102222.38;5032000;28;50084;-68
2022/11/25 17:45:43;;;;;;;;;6.75;5.75;;;;;11.56;100.00;102212.38;5020676;28;49795;-68
2022/11/25 17:48:11;;;;;;;;;8.00;8.00;;;;;11.58;100.00;102230.84;5051171;28;49940;-67
2022/11/25 17:50:37;;;;;;;;;5.25;5.25;;;;;11.50;100.00;102216.53;5051219;28;49685;-67
2022/11/25 17:53:03;;;;;;;;;11.00;10.00;;;;;11.40;100.00;102212.63;5042539;28;50063;-67
2022/11/25 17:55:29;;;;;;;;;9.50;7.50;;;;;11.53;100.00;102253.44;5031977;28;49964;-67